Time;durP1;ratioP1;P1;durP2;ratioP2;P2;SDS_P1;SDS_P2;PMS_P1;PMS_P2;Temp;Humidity;BMP_temperature;BMP_pressure;BME280_temperature;BME280_humidity;BME280_pressure;Samples;Min_cycle;Max_cycle;Signal;HPM_P1;HPM_P2
2022/09/23 00:01:10;;;;;;;10.15;6.63;;;;;;;16.45;66.63;100101.75;4996948;28;20050;-40
2022/09/23 00:03:40;;;;;;;10.27;5.28;;;;;;;16.45;66.62;100098.31;4996959;28;21598;-40
2022/09/23 00:06:10;;;;;;;11.77;6.38;;;;;;;16.45;67.48;100106.97;4999715;28;20081;-39
2022/09/23 00:08:38;;;;;;;12.38;6.38;;;;;;;16.43;67.56;100098.34;4998144;28;20046;-41
2022/09/23 00:11:16;;;;;;;11.02;7.28;;;;;;;16.40;67.90;100102.78;4998380;28;20173;-40
2022/09/23 00:13:45;;;;;;;9.85;7.05;;;;;;;16.41;67.44;100097.50;4998847;28;20101;-42
2022/09/23 00:16:15;;;;;;;10.40;6.82;;;;;;;16.41;67.18;100099.25;4996886;28;20050;-44
2022/09/23 00:18:42;;;;;;;;;;;;;;;16.24;67.61;100097.09;4989414;28;20043;-41
2022/09/23 00:21:12;;;;;;;8.77;6.10;;;;;;;16.35;67.80;100097.66;4986079;28;19930;-41
2022/09/23 00:23:42;;;;;;;9.85;6.75;;;;;;;16.35;67.86;100095.03;4969227;28;20056;-39
2022/09/23 00:30:04;;;;;;;10.15;7.82;;;;;;;16.33;67.60;100094.25;4962961;28;20069;-43
2022/09/23 00:32:33;;;;;;;10.20;7.82;;;;;;;16.32;67.67;100092.53;4966310;28;20081;-40
2022/09/23 00:35:02;;;;;;;12.55;7.28;;;;;;;16.33;68.05;100086.41;4980009;28;20046;-40
2022/09/23 00:37:31;;;;;;;11.85;6.88;;;;;;;16.33;67.95;100086.41;4985392;28;20056;-40
2022/09/23 00:39:59;;;;;;;14.57;7.85;;;;;;;16.35;67.90;100094.19;4989067;28;20081;-42
2022/09/23 00:42:27;;;;;;;11.77;7.40;;;;;;;16.32;68.38;100090.75;4991120;28;20546;-42
2022/09/23 00:44:58;;;;;;;11.07;7.32;;;;;;;16.32;68.30;100084.69;4988814;28;20089;-39
2022/09/23 00:47:40;;;;;;;12.05;7.47;;;;;;;16.29;68.90;100090.00;4982677;28;20084;-38
2022/09/23 00:52:43;;;;;;;12.68;6.55;;;;;;;16.32;68.55;100089.91;5033530;27;20397;-40
2022/09/23 00:55:14;;;;;;;11.38;6.30;;;;;;;16.31;68.69;100082.94;5014785;28;20045;-45
2022/09/23 00:57:44;;;;;;;10.73;6.55;;;;;;;16.32;68.95;100076.84;5021797;28;20045;-39
2022/09/23 01:00:14;;;;;;;10.23;5.82;;;;;;;16.31;68.94;100081.22;5020181;28;20131;-41
2022/09/23 01:02:41;;;;;;;;;;;;;;;16.13;68.49;100077.31;5020468;28;20041;-42
2022/09/23 01:05:08;;;;;;;13.15;5.85;;;;;;;16.26;68.67;100075.25;5018182;28;19976;-44
2022/09/23 01:07:34;;;;;;;9.18;6.18;;;;;;;16.27;68.56;100076.09;5022867;28;20133;-41
2022/09/23 01:10:02;;;;;;;10.45;6.35;;;;;;;16.28;68.55;100072.59;5023084;28;20056;-45
2022/09/23 01:26:38;;;;;;;15.45;9.40;;;;;;;16.51;70.43;100086.81;5025344;27;20414;-38
2022/09/23 01:29:44;;;;;;;13.02;7.35;;;;;;;16.30;70.38;100089.09;5017847;28;20547;-40
2022/09/23 01:32:36;;;;;;;11.02;6.18;;;;;;;16.31;70.22;100082.94;5018641;28;20385;-41
2022/09/23 01:46:19;;;;;;;10.43;5.80;;;;;;;16.22;70.64;100083.22;5023917;28;20408;-43
2022/09/23 01:48:55;;;;;;;10.43;5.45;;;;;;;16.19;70.60;100074.53;5002772;28;20132;-41
2022/09/23 01:51:31;;;;;;;11.00;5.63;;;;;;;16.16;70.64;100069.41;5000766;28;20071;-43
2022/09/23 01:54:10;;;;;;;9.40;5.32;;;;;;;16.13;70.77;100069.47;4991380;28;20144;-40
2022/09/23 01:56:45;;;;;;;13.00;5.53;;;;;;;16.14;70.79;100065.97;4999695;28;20817;-44
2022/09/23 02:02:27;;;;;;;16.73;6.68;;;;;;;16.08;71.11;100058.31;5026861;27;20409;-41
2022/09/23 02:05:01;;;;;;;12.27;6.15;;;;;;;16.09;70.93;100057.41;5018828;28;20140;-40
2022/09/23 02:07:37;;;;;;;13.95;7.32;;;;;;;16.08;70.94;100060.91;5016228;28;20134;-45
2022/09/23 02:10:12;;;;;;;13.77;6.57;;;;;;;16.09;70.89;100061.75;5016992;28;20046;-42
2022/09/23 02:12:42;;;;;;;17.58;8.77;;;;;;;16.07;70.86;100056.56;5011905;28;20049;-44
2022/09/23 02:15:14;;;;;;;16.98;7.75;;;;;;;16.05;70.91;100053.16;5021628;28;20137;-46
2022/09/23 02:17:50;;;;;;;17.02;7.78;;;;;;;16.02;70.76;100056.69;5017520;28;20120;-42
2022/09/23 02:20:24;;;;;;;16.88;7.53;;;;;;;16.01;70.81;100054.13;5000968;28;20109;-41
2022/09/23 02:23:02;;;;;;;20.38;8.05;;;;;;;15.98;70.59;100059.41;5010263;28;20069;-40
2022/09/23 02:25:39;;;;;;;21.40;8.68;;;;;;;15.96;71.02;100062.06;5018238;28;20080;-44
2022/09/23 02:28:30;;;;;;;20.25;9.18;;;;;;;15.88;70.55;100062.22;5015652;28;20160;-47
2022/09/23 02:31:07;;;;;;;21.02;8.98;;;;;;;15.88;70.95;100059.59;5020137;28;20511;-38
2022/09/23 02:33:42;;;;;;;22.42;9.00;;;;;;;15.89;71.26;100055.25;5007252;28;20070;-41
2022/09/23 02:36:21;;;;;;;24.48;9.57;;;;;;;15.85;71.07;100049.25;5001204;28;20398;-45
2022/09/23 02:38:56;;;;;;;25.15;10.80;;;;;;;15.85;71.67;100053.59;4999309;28;20501;-41
2022/09/23 02:42:02;;;;;;;23.38;10.73;;;;;;;15.79;70.99;100059.84;5000531;28;20115;-41
2022/09/23 02:44:31;;;;;;;24.02;10.23;;;;;;;15.81;71.53;100058.06;4987083;28;20069;-41
2022/09/23 02:46:58;;;;;;;29.20;11.32;;;;;;;15.80;71.15;100059.81;5003211;28;20072;-42
2022/09/23 02:49:28;;;;;;;30.30;11.70;;;;;;;15.81;71.34;100052.84;5000540;28;20093;-44
2022/09/23 02:51:56;;;;;;;29.48;11.65;;;;;;;15.79;71.34;100059.84;5000344;28;20085;-43
2022/09/23 02:54:26;;;;;;;30.55;11.48;;;;;;;15.79;71.61;100059.84;5001303;28;20070;-42
2022/09/23 02:56:54;;;;;;;28.05;11.50;;;;;;;15.78;71.25;100064.19;4995661;28;20054;-42
2022/09/23 02:59:22;;;;;;;27.05;10.85;;;;;;;15.78;71.61;100063.34;5001046;28;20050;-39
2022/09/23 03:18:19;;;;;;;30.63;11.52;;;;;;;15.73;72.18;100078.25;5042445;27;20406;-42
2022/09/23 03:20:51;;;;;;;28.10;10.93;;;;;;;15.74;72.06;100074.78;5042539;28;20065;-40
2022/09/23 03:23:24;;;;;;;30.80;12.85;;;;;;;15.72;71.98;100080.03;5037933;28;20072;-46
2022/09/23 03:25:54;;;;;;;32.92;11.75;;;;;;;15.70;72.23;100086.19;5036735;28;20049;-41
2022/09/23 03:28:24;;;;;;;32.00;12.93;;;;;;;15.67;72.25;100081.88;5043007;28;20080;-46
2022/09/23 03:30:52;;;;;;;31.42;13.02;;;;;;;15.66;71.81;100081.03;5044372;28;20069;-47
2022/09/23 03:33:24;;;;;;;31.98;12.40;;;;;;;15.65;72.39;100086.28;5046127;28;20102;-43
2022/09/23 03:38:51;;;;;;;27.98;11.52;;;;;;;15.60;71.59;100081.16;5041577;28;20045;-42
2022/09/23 03:41:28;;;;;;;31.75;13.20;;;;;;;15.57;72.13;100083.84;5037879;28;20095;-42
2022/09/23 03:43:58;;;;;;;31.00;12.52;;;;;;;15.59;71.74;100079.44;5042290;28;20057;-43
2022/09/23 03:46:27;;;;;;;32.20;12.05;;;;;;;15.57;71.83;100083.84;5043913;28;20072;-43
2022/09/23 03:49:04;;;;;;;30.73;11.77;;;;;;;15.54;72.10;100070.88;5042175;28;20073;-40
2022/09/23 03:51:30;;;;;;;30.65;11.50;;;;;;;15.52;72.12;100077.88;5037948;28;20049;-44
2022/09/23 03:53:57;;;;;;;28.60;10.57;;;;;;;15.50;72.30;100077.06;5042236;28;20060;-40
2022/09/23 03:56:24;;;;;;;28.83;11.00;;;;;;;15.46;71.62;100078.88;5041135;28;20045;-45
2022/09/23 03:58:50;;;;;;;31.83;11.10;;;;;;;15.45;71.92;100076.28;5041380;28;20108;-42
2022/09/23 04:01:17;;;;;;;30.83;12.93;;;;;;;15.41;72.27;100073.75;5036362;28;20049;-42
2022/09/23 04:03:44;;;;;;;30.92;12.68;;;;;;;15.38;72.30;100070.34;5039236;28;20053;-45
2022/09/23 04:06:10;;;;;;;33.40;11.40;;;;;;;15.37;72.23;100068.66;5039242;28;20063;-40
2022/09/23 04:08:37;;;;;;;30.45;11.07;;;;;;;15.33;72.07;100060.00;5044053;28;20053;-42
2022/09/23 04:11:04;;;;;;;30.50;12.68;;;;;;;15.32;72.12;100067.88;5037365;28;20076;-42
2022/09/23 04:13:31;;;;;;;33.75;12.57;;;;;;;15.31;72.70;100067.03;5041108;28;20045;-40
2022/09/23 04:15:57;;;;;;;31.48;11.38;;;;;;;15.28;72.15;100062.75;5037004;28;20148;-48
2022/09/23 04:18:24;;;;;;;31.05;12.32;;;;;;;15.27;72.38;100060.16;5040263;28;20049;-40
2022/09/23 04:20:55;;;;;;;33.00;11.82;;;;;;;15.26;71.77;100061.03;5037556;28;20508;-41
2022/09/23 04:23:23;;;;;;;31.20;11.23;;;;;;;15.24;72.11;100063.72;5039225;28;20099;-41
2022/09/23 04:25:49;;;;;;;27.90;10.10;;;;;;;15.23;72.20;100055.91;5038408;28;20073;-38
2022/09/23 04:28:16;;;;;;;30.05;11.50;;;;;;;15.22;72.17;100059.38;5033780;28;20068;-39
2022/09/23 04:30:43;;;;;;;31.98;10.82;;;;;;;15.22;72.48;100064.59;5025564;28;20128;-45
2022/09/23 04:33:10;;;;;;;28.88;10.18;;;;;;;15.22;72.40;100059.38;5026434;28;20080;-44
2022/09/23 04:35:37;;;;;;;37.40;11.07;;;;;;;15.21;71.98;100062.91;5023921;28;20100;-40
2022/09/23 04:38:06;;;;;;;27.88;10.43;;;;;;;15.22;72.17;100069.81;5028564;28;20049;-43
2022/09/23 04:40:33;;;;;;;29.33;10.77;;;;;;;15.21;71.96;100073.34;5026147;28;20049;-41
2022/09/23 04:42:59;;;;;;;25.23;10.55;;;;;;;15.21;71.78;100068.97;5024200;28;20111;-43
2022/09/23 04:45:26;;;;;;;27.20;9.68;;;;;;;15.19;71.68;100067.31;5023843;28;20081;-40
2022/09/23 04:47:53;;;;;;;28.52;10.00;;;;;;;15.19;72.26;100064.69;5024882;28;20076;-39
2022/09/23 04:50:20;;;;;;;26.23;9.57;;;;;;;15.18;71.63;100062.97;5024463;28;20068;-42
2022/09/23 04:52:47;;;;;;;28.02;10.68;;;;;;;15.15;71.92;100067.38;5023247;28;20057;-44
2022/09/23 04:55:13;;;;;;;29.33;10.82;;;;;;;15.14;71.66;100070.84;5025177;28;20469;-41
2022/09/23 04:57:40;;;;;;;30.90;10.98;;;;;;;15.12;72.41;100063.94;5025032;28;20045;-42
2022/09/23 05:00:08;;;;;;;26.85;10.80;;;;;;;15.10;71.90;100076.19;5025590;28;20149;-40
2022/09/23 05:02:41;;;;;;;26.02;10.38;;;;;;;15.07;71.68;100060.59;5026124;28;20077;-41
2022/09/23 05:05:08;;;;;;;29.83;10.57;;;;;;;15.06;71.60;100070.16;5018370;28;20519;-41
2022/09/23 05:07:35;;;;;;;30.52;11.45;;;;;;;15.05;72.39;100065.84;5022508;28;20562;-40
2022/09/23 05:10:01;;;;;;;30.23;10.40;;;;;;;15.01;72.48;100079.84;5022244;28;20460;-44
2022/09/23 05:12:28;;;;;;;27.30;9.90;;;;;;;15.02;72.33;100081.53;5026265;28;20045;-40
2022/09/23 05:14:55;;;;;;;27.13;10.38;;;;;;;15.00;72.25;100080.72;5026778;28;20073;-42
2022/09/23 05:17:22;;;;;;;25.42;9.73;;;;;;;14.99;72.27;100085.06;5026625;28;20046;-41
2022/09/23 05:19:49;;;;;;;25.83;10.38;;;;;;;14.97;71.89;100086.00;5024951;28;20130;-37
2022/09/23 05:22:16;;;;;;;27.23;9.43;;;;;;;14.93;72.26;100086.97;5021501;28;20099;-41
2022/09/23 05:24:42;;;;;;;26.38;9.88;;;;;;;14.90;72.38;100091.34;5029358;28;20049;-39
2022/09/23 05:27:09;;;;;;;28.58;10.57;;;;;;;14.87;72.53;100091.41;5024926;28;20691;-41
2022/09/23 05:29:35;;;;;;;33.22;10.90;;;;;;;14.85;72.10;100092.31;5025242;28;20064;-38
2022/09/23 05:32:02;;;;;;;28.92;10.80;;;;;;;14.85;72.45;100093.19;5022516;28;20132;-40
2022/09/23 05:34:29;;;;;;;27.13;10.35;;;;;;;14.85;72.06;100093.19;5022525;28;20065;-39
2022/09/23 05:36:57;;;;;;;25.20;8.95;;;;;;;14.86;72.26;100094.88;5024519;28;20140;-40
2022/09/23 05:39:23;;;;;;;26.30;10.75;;;;;;;14.88;72.44;100100.06;5019017;28;20520;-38
2022/09/23 05:41:51;;;;;;;28.85;10.32;;;;;;;14.88;72.44;100093.13;5024853;28;20080;-42
2022/09/23 05:44:18;;;;;;;28.20;9.73;;;;;;;14.90;72.76;100099.16;5024228;28;20045;-42
2022/09/23 05:46:44;;;;;;;31.25;10.02;;;;;;;14.90;71.88;100101.75;5025401;28;20124;-40
2022/09/23 05:49:11;;;;;;;27.92;10.27;;;;;;;14.89;72.28;100100.06;5024473;28;20881;-39
2022/09/23 05:51:38;;;;;;;25.50;9.30;;;;;;;14.90;72.46;100100.94;5029203;28;20049;-42
2022/09/23 05:54:05;;;;;;;23.85;9.27;;;;;;;14.90;72.48;100101.75;5022431;28;20088;-44
2022/09/23 05:56:33;;;;;;;27.60;9.07;;;;;;;14.90;72.72;100106.97;5044475;28;20061;-42
2022/09/23 05:59:01;;;;;;;26.63;9.48;;;;;;;14.90;72.75;100109.59;5040497;28;20654;-41
2022/09/23 06:01:32;;;;;;;34.25;9.93;;;;;;;14.92;72.46;100112.16;5041117;28;20073;-40
2022/09/23 06:04:00;;;;;;;28.95;9.23;;;;;;;14.93;72.31;100110.44;5048248;28;20044;-43
2022/09/23 06:06:30;;;;;;;30.50;9.50;;;;;;;14.93;72.88;100113.03;5040966;28;20075;-40
2022/09/23 06:08:58;;;;;;;30.90;10.52;;;;;;;14.92;72.37;100109.56;5026983;28;20262;-45
2022/09/23 06:11:26;;;;;;;27.10;9.20;;;;;;;14.91;72.86;100115.66;5042168;28;20052;-42
2022/09/23 06:13:55;;;;;;;27.40;10.57;;;;;;;14.92;72.35;100114.78;5026704;28;20139;-41
2022/09/23 06:16:21;;;;;;;24.98;9.68;;;;;;;14.93;72.80;100123.47;5039380;28;20079;-40
2022/09/23 06:18:48;;;;;;;28.38;9.75;;;;;;;14.93;72.27;100120.88;5043704;28;20549;-41
2022/09/23 06:21:16;;;;;;;28.48;9.90;;;;;;;14.95;72.68;100116.44;5041274;28;20068;-39
2022/09/23 06:23:43;;;;;;;25.13;9.18;;;;;;;14.95;72.77;100119.94;5043026;28;20045;-39
2022/09/23 06:26:13;;;;;;;26.85;9.93;;;;;;;14.96;72.71;100120.81;5038171;28;20049;-42
2022/09/23 06:28:41;;;;;;;28.27;9.52;;;;;;;14.95;72.71;100119.06;5039971;28;20098;-41
2022/09/23 06:31:12;;;;;;;32.20;9.45;;;;;;;14.98;72.90;100116.41;5040649;28;20041;-42
2022/09/23 06:33:41;;;;;;;25.88;9.38;;;;;;;14.99;72.83;100118.13;5040613;28;20512;-40
2022/09/23 06:36:09;;;;;;;30.05;9.90;;;;;;;14.99;72.94;100116.38;5041220;28;20061;-43
2022/09/23 06:38:40;;;;;;;27.73;8.80;;;;;;;15.02;72.36;100120.66;5050761;28;20172;-43
2022/09/23 06:41:07;;;;;;;26.70;8.77;;;;;;;15.03;72.97;100122.41;5041734;28;20065;-43
2022/09/23 06:43:33;;;;;;;25.48;9.02;;;;;;;15.02;72.45;100121.53;5046471;28;20664;-43
2022/09/23 06:46:02;;;;;;;29.33;9.73;;;;;;;15.06;72.93;100121.47;5044126;28;20140;-40
2022/09/23 06:48:34;;;;;;;30.40;10.07;;;;;;;15.08;72.80;100123.16;5044520;28;20049;-46
2022/09/23 06:51:03;;;;;;;25.17;9.30;;;;;;;15.11;72.98;100128.31;5041622;28;20162;-41
2022/09/23 06:53:31;;;;;;;29.60;9.68;;;;;;;15.14;73.24;100125.63;5041758;28;20131;-42
2022/09/23 06:56:07;;;;;;;25.88;8.30;;;;;;;15.17;73.22;100132.56;5041639;28;20144;-45
2022/09/23 06:58:35;;;;;;;23.25;8.32;;;;;;;15.23;72.72;100134.19;5039891;28;20114;-40
2022/09/23 07:01:05;;;;;;;22.95;8.07;;;;;;;15.24;72.85;100141.09;5043024;28;20504;-41
2022/09/23 07:03:33;;;;;;;21.42;7.53;;;;;;;15.24;72.99;100143.72;5039237;28;20045;-43
2022/09/23 07:06:00;;;;;;;22.50;7.28;;;;;;;15.22;73.04;100142.88;5041803;28;20235;-43
2022/09/23 07:08:28;;;;;;;25.55;8.35;;;;;;;15.22;72.22;100142.88;5040654;28;20072;-45
2022/09/23 07:10:58;;;;;;;20.45;7.82;;;;;;;15.22;72.85;100145.47;5026900;28;20049;-41
2022/09/23 07:13:25;;;;;;;21.58;6.93;;;;;;;15.20;72.45;100144.66;5042571;28;20124;-40
2022/09/23 07:15:54;;;;;;;20.85;7.07;;;;;;;15.22;72.68;100142.88;5040957;28;20080;-46
2022/09/23 07:18:22;;;;;;;16.95;6.35;;;;;;;15.26;72.95;100149.75;5029040;28;20067;-41
2022/09/23 07:20:49;;;;;;;18.55;6.28;;;;;;;15.25;72.32;100142.81;5042571;28;20076;-40
2022/09/23 07:23:17;;;;;;;20.58;6.50;;;;;;;15.26;71.97;100150.63;5040957;28;20116;-47
2022/09/23 07:25:49;;;;;;;17.00;5.72;;;;;;;15.28;72.47;100147.97;5041454;28;20059;-39
2022/09/23 07:28:16;;;;;;;15.35;5.20;;;;;;;15.29;72.59;100144.47;5040679;28;20079;-45
2022/09/23 07:30:44;;;;;;;18.15;5.57;;;;;;;15.33;72.19;100148.72;5042618;28;20471;-44
2022/09/23 07:33:24;;;;;;;14.93;5.63;;;;;;;15.38;71.62;100154.72;5037246;28;20072;-41
2022/09/23 07:35:58;;;;;;;16.20;6.00;;;;;;;15.44;71.59;100163.31;5040714;28;20057;-40
2022/09/23 07:38:28;;;;;;;14.30;5.15;;;;;;;15.48;71.35;100164.97;5036193;28;20041;-38
2022/09/23 07:41:02;;;;;;;13.70;4.90;;;;;;;15.52;71.12;100166.63;5041908;28;20075;-50
2022/09/23 07:43:31;;;;;;;15.18;5.13;;;;;;;15.57;71.70;100171.75;5040360;28;20041;-40
2022/09/23 07:46:02;;;;;;;12.38;5.15;;;;;;;15.72;71.15;100170.53;5044587;28;20417;-41
2022/09/23 07:48:29;;;;;;;12.63;5.35;;;;;;;15.94;71.39;100168.28;5045249;28;20119;-42
2022/09/23 07:51:05;;;;;;;10.45;4.65;;;;;;;16.09;71.19;100176.72;5046640;28;20053;-41
2022/09/23 07:53:32;;;;;;;12.00;4.78;;;;;;;16.13;70.99;100171.38;5044364;28;20140;-40
2022/09/23 07:55:58;;;;;;;12.98;5.18;;;;;;;16.12;70.11;100172.28;5038348;28;20539;-40
2022/09/23 07:58:25;;;;;;;13.40;4.80;;;;;;;16.07;69.98;100179.34;5048690;28;20053;-40
2022/09/23 08:00:52;;;;;;;13.07;4.50;;;;;;;16.03;70.01;100177.72;5043207;28;20069;-42
2022/09/23 08:03:19;;;;;;;12.18;4.60;;;;;;;16.00;70.21;100175.16;5046433;28;20403;-40
2022/09/23 08:05:46;;;;;;;12.30;5.65;;;;;;;16.01;70.20;100180.34;5031606;28;20056;-44
2022/09/23 08:08:13;;;;;;;9.82;4.20;;;;;;;16.01;70.08;100184.75;5049073;28;20047;-41
2022/09/23 08:10:39;;;;;;;11.30;4.35;;;;;;;15.97;70.27;100183.94;5044904;28;20044;-43
2022/09/23 08:13:06;;;;;;;11.55;3.90;;;;;;;15.94;69.79;100190.06;5043143;28;20053;-44
2022/09/23 08:15:33;;;;;;;9.98;4.20;;;;;;;15.92;70.08;100186.66;5046730;28;20711;-43
2022/09/23 08:18:00;;;;;;;13.85;5.00;;;;;;;15.91;69.86;100187.50;5049317;28;20041;-44
2022/09/23 08:23:15;;;;;;;11.45;4.15;;;;;;;16.02;69.83;100196.91;5046569;28;20053;-40
2022/09/23 08:25:45;;;;;;;14.50;4.32;;;;;;;16.15;69.48;100203.53;5046010;28;20045;-41
2022/09/23 08:28:15;;;;;;;10.60;4.40;;;;;;;16.41;68.97;100204.69;5042307;28;20047;-40
2022/09/23 08:30:43;;;;;;;10.60;4.95;;;;;;;16.89;69.60;100205.22;5047465;28;20045;-42
2022/09/23 08:33:10;;;;;;;10.95;3.50;;;;;;;17.60;68.65;100201.56;5047056;28;20080;-41
2022/09/23 08:35:37;;;;;;;13.27;4.68;;;;;;;18.17;67.28;100198.97;5049298;28;20435;-43
2022/09/23 08:38:05;;;;;;;9.30;3.78;;;;;;;18.52;65.69;100210.97;5046320;28;20088;-43
2022/09/23 08:40:35;;;;;;;8.32;3.83;;;;;;;19.08;64.32;100204.72;5045133;28;20053;-45
2022/09/23 08:43:05;;;;;;;7.82;2.97;;;;;;;19.68;63.11;100208.66;5047431;28;20048;-44
2022/09/23 08:45:36;;;;;;;5.65;2.83;;;;;;;20.46;61.34;100210.03;5046187;28;20111;-41
2022/09/23 08:48:14;;;;;;;8.43;3.40;;;;;;;21.40;59.95;100209.53;5041339;28;20057;-40
2022/09/23 08:50:46;;;;;;;5.53;2.70;;;;;;;22.24;57.44;100212.69;5042292;28;20546;-40
2022/09/23 08:53:22;;;;;;;7.50;2.88;;;;;;;22.95;55.78;100214.44;5032050;28;20081;-38
2022/09/23 08:55:51;;;;;;;7.22;2.92;;;;;;;23.23;54.51;100215.59;5042526;28;20056;-40
2022/09/23 09:06:44;;;;;;;6.70;2.97;;;;;;;22.03;53.57;100226.88;5057031;27;20387;-43
2022/09/23 09:09:26;;;;;;;6.93;3.00;;;;;;;21.69;54.84;100223.16;5045388;28;20104;-42
2022/09/23 09:12:02;;;;;;;6.90;2.45;;;;;;;21.43;55.30;100227.84;5016630;28;20073;-41
2022/09/23 09:14:57;;;;;;;7.55;2.53;;;;;;;21.14;54.92;100232.66;5041318;28;20127;-42
2022/09/23 09:20:37;;;;;;;7.60;2.80;;;;;;;21.95;56.00;100226.34;5029881;28;20403;-44
2022/09/23 09:23:20;;;;;;;6.15;3.55;;;;;;;22.28;54.16;100227.44;5018540;28;20768;-46
2022/09/23 09:25:51;;;;;;;4.68;2.08;;;;;;;22.45;53.55;100226.59;5006723;28;20073;-40
2022/09/23 09:30:58;;;;;;;5.82;2.28;;;;;;;22.77;52.08;100221.53;5044296;27;20397;-41
2022/09/23 09:33:33;;;;;;;4.78;2.22;;;;;;;23.26;52.95;100217.22;5003019;28;20042;-43
2022/09/23 09:36:09;;;;;;;6.50;2.85;;;;;;;24.05;51.59;100219.19;5015418;28;20156;-41
2022/09/23 09:38:36;;;;;;;8.85;3.33;;;;;;;24.11;50.66;100209.13;4999004;28;20070;-40
2022/09/23 09:41:12;;;;;;;7.03;3.72;;;;;;;23.86;49.97;100221.06;5000483;28;20434;-45
2022/09/23 09:43:40;;;;;;;6.68;4.35;;;;;;;23.65;50.92;100219.59;4997619;28;20664;-40
2022/09/23 09:48:59;;;;;;;3.72;2.67;;;;;;;24.30;49.55;100213.34;5033840;27;20399;-43
2022/09/23 09:51:28;;;;;;;3.75;2.63;;;;;;;24.28;49.50;100220.50;5003037;28;20057;-42
2022/09/23 09:54:17;;;;;;;5.75;2.90;;;;;;;24.62;48.74;100215.91;5006759;28;20142;-39
2022/09/23 09:56:43;;;;;;;;;;;;;;;24.99;47.93;100215.50;5004624;28;20532;-41
2022/09/23 09:59:16;;;;;;;6.97;3.10;;;;;;;24.69;46.86;100216.38;5008416;28;20032;-40
2022/09/23 10:01:44;;;;;;;3.67;2.90;;;;;;;24.64;47.72;100216.69;5013869;28;20054;-40
2022/09/23 10:07:13;;;;;;;3.33;2.17;;;;;;;25.10;45.72;100212.22;5044442;27;20942;-43
2022/09/23 10:09:47;;;;;;;3.30;1.35;;;;;;;25.12;44.17;100207.66;5022188;28;20133;-40
2022/09/23 10:12:18;;;;;;;3.28;1.40;;;;;;;25.12;44.69;100202.38;5004774;28;20046;-39
2022/09/23 10:14:50;;;;;;;4.15;1.40;;;;;;;25.05;44.76;100201.03;5023661;28;20057;-43
2022/09/23 10:17:23;;;;;;;4.68;1.42;;;;;;;24.92;44.02;100200.94;5019303;28;20050;-41
2022/09/23 10:19:59;;;;;;;3.88;1.23;;;;;;;24.72;44.44;100191.53;5022747;28;20115;-47
2022/09/23 10:22:28;;;;;;;;;;;;;;;24.69;44.36;100197.00;5020591;28;20045;-42
2022/09/23 10:25:00;;;;;;;3.17;1.10;;;;;;;24.59;44.45;100192.25;5021869;28;19922;-41
2022/09/23 10:27:31;;;;;;;4.55;1.90;;;;;;;24.39;44.45;100191.63;5023668;28;20074;-38
2022/09/23 10:30:02;;;;;;;3.38;1.52;;;;;;;24.39;45.16;100191.63;5022432;28;20049;-41
2022/09/23 10:32:33;;;;;;;5.97;2.35;;;;;;;24.32;45.30;100190.28;5015425;28;20115;-42
2022/09/23 10:37:48;;;;;;;5.82;2.47;;;;;;;24.22;45.30;100189.13;5077431;27;20419;-45
2022/09/23 10:51:57;;;;;;;5.47;2.67;;;;;;;23.64;45.58;100183.53;5053733;28;20400;-36
2022/09/23 10:57:40;;;;;;;5.90;2.00;;;;;;;23.28;46.19;100188.94;5060833;28;20387;-37
2022/09/23 11:06:02;;;;;;;2.60;1.55;;;;;;;22.93;46.92;100173.19;5081840;28;20413;-42
2022/09/23 11:14:37;;;;;;;4.82;1.48;;;;;;;22.85;44.90;100185.00;5023818;27;20434;-41
2022/09/23 11:17:31;;;;;;;3.50;1.58;;;;;;;22.72;45.68;100181.28;5011388;28;20042;-40
2022/09/23 11:36:10;;;;;;;4.25;1.20;;;;;;;21.80;46.51;100168.19;5075088;27;20385;-40
2022/09/23 11:38:42;;;;;;;2.65;1.17;;;;;;;21.67;47.31;100181.03;5043359;28;20143;-40
2022/09/23 11:41:18;;;;;;;6.68;1.77;;;;;;;21.61;47.24;100172.59;5052150;28;20126;-40
2022/09/23 11:43:51;;;;;;;2.65;1.52;;;;;;;21.68;48.09;100166.06;5046720;28;20045;-38
2022/09/23 11:49:21;;;;;;;3.58;1.73;;;;;;;21.45;47.76;100168.03;5096916;27;20383;-40
2022/09/23 11:52:01;;;;;;;4.20;1.25;;;;;;;21.32;47.63;100168.56;5057538;28;20068;-41
2022/09/23 11:54:52;;;;;;;4.28;1.35;;;;;;;21.10;47.85;100166.06;5057938;28;20140;-40
2022/09/23 11:57:28;;;;;;;5.13;1.67;;;;;;;21.09;48.06;100167.00;5062513;28;20079;-38
2022/09/23 12:00:18;;;;;;;3.15;1.33;;;;;;;21.09;48.08;100168.78;5059030;28;20049;-41
2022/09/23 12:05:24;;;;;;;4.32;1.40;;;;;;;21.01;47.47;100159.44;5023076;27;20405;-42
2022/09/23 12:19:29;;;;;;;3.22;2.47;;;;;;;21.22;46.85;100156.78;5024086;28;20406;-41
2022/09/23 12:22:23;;;;;;;4.75;2.88;;;;;;;21.14;46.55;100153.63;4985152;28;20150;-42
2022/09/23 12:24:58;;;;;;;5.28;1.67;;;;;;;21.03;46.31;100157.59;5011842;28;20069;-44
2022/09/23 12:27:45;;;;;;;5.95;2.20;;;;;;;20.84;46.33;100147.00;4991093;28;20050;-43
2022/09/23 12:30:19;;;;;;;6.15;1.50;;;;;;;20.84;46.47;100152.25;4979923;28;20150;-40
2022/09/23 12:32:46;;;;;;;6.70;1.63;;;;;;;20.88;46.62;100145.09;4979532;28;20114;-40
2022/09/23 12:35:37;;;;;;;4.32;1.92;;;;;;;20.94;46.48;100142.22;4986346;28;20047;-42
2022/09/23 12:38:13;;;;;;;2.65;2.22;;;;;;;21.04;46.21;100143.50;4969511;28;20141;-39
2022/09/23 12:40:42;;;;;;;2.70;1.58;;;;;;;21.09;45.56;100130.13;4990768;28;20125;-44
2022/09/23 12:43:26;;;;;;;2.08;0.68;;;;;;;20.97;44.66;100142.06;4991660;28;20403;-43
2022/09/23 12:45:52;;;;;;;4.70;2.58;;;;;;;20.87;45.70;100130.22;4988720;28;20130;-41
2022/09/23 12:51:11;;;;;;;3.13;0.60;;;;;;;20.88;46.27;100126.66;5059834;28;20391;-40
2022/09/23 12:53:58;;;;;;;2.22;0.50;;;;;;;21.03;45.99;100125.16;5055809;28;20052;-42
2022/09/23 13:02:08;;;;;;;2.90;0.68;;;;;;;21.08;43.84;100122.31;5006578;28;20410;-43
2022/09/23 13:07:44;;;;;;;2.70;0.85;;;;;;;20.77;44.52;100120.09;4984661;28;20132;-39
2022/09/23 13:10:18;;;;;;;2.67;1.05;;;;;;;20.85;43.74;100121.53;4988385;28;20046;-39
2022/09/23 13:12:46;;;;;;;3.17;1.23;;;;;;;20.86;44.25;100125.88;4988037;28;20109;-39
2022/09/23 13:20:53;;;;;;;3.15;0.63;;;;;;;20.86;44.60;100123.22;5026019;28;20417;-41
2022/09/23 13:26:07;;;;;;;3.28;1.75;;;;;;;21.11;44.97;100114.28;5073590;27;20415;-41
2022/09/23 13:28:43;;;;;;;3.17;1.77;;;;;;;21.24;44.41;100115.41;5060452;28;20041;-41
2022/09/23 13:31:15;;;;;;;1.98;1.40;;;;;;;21.34;44.33;100121.09;5068882;28;20052;-44
2022/09/23 13:33:49;;;;;;;3.83;1.58;;;;;;;21.31;43.95;100114.19;5060071;28;20056;-42
2022/09/23 13:36:17;;;;;;;2.25;1.73;;;;;;;21.19;43.20;100120.03;5043773;28;20495;-40
2022/09/23 13:38:45;;;;;;;2.83;1.20;;;;;;;21.00;43.20;100120.88;5084066;28;20823;-43
2022/09/23 13:43:57;;;;;;;1.27;0.40;;;;;;;20.77;43.39;100125.34;5034912;27;20403;-41
2022/09/23 13:46:33;;;;;;;3.13;0.55;;;;;;;20.71;43.98;100117.75;5015612;28;20100;-42
2022/09/23 13:49:01;;;;;;;2.30;0.70;;;;;;;20.76;44.36;100112.25;5013565;28;20046;-44
2022/09/23 13:51:32;;;;;;;1.10;0.70;;;;;;;20.91;44.32;100108.13;4996950;28;20057;-42
2022/09/23 13:54:02;;;;;;;2.25;0.45;;;;;;;21.11;44.09;100111.63;5008002;28;20468;-39
2022/09/23 13:56:32;;;;;;;1.25;0.30;;;;;;;21.20;44.22;100113.84;5015403;28;20100;-43
2022/09/23 13:59:18;;;;;;;;;;;;;;;21.06;42.55;100099.53;4985309;28;20050;-41
2022/09/23 14:01:45;;;;;;;3.42;0.88;;;;;;;21.11;42.51;100109.00;5005714;28;20005;-40
2022/09/23 14:04:24;;;;;;;1.80;0.50;;;;;;;20.96;42.04;100108.78;5010850;28;20136;-44
2022/09/23 14:06:53;;;;;;;7.57;0.70;;;;;;;20.93;42.68;100109.78;5003746;28;20049;-43
2022/09/23 14:09:26;;;;;;;0.90;0.43;;;;;;;20.90;43.12;100109.03;5012259;28;20058;-42
2022/09/23 14:11:55;;;;;;;4.43;0.50;;;;;;;20.89;43.33;100117.88;4989558;28;20096;-41
2022/09/23 14:14:22;;;;;;;1.85;0.50;;;;;;;20.88;43.81;100110.88;5010790;28;20042;-40
2022/09/23 14:16:50;;;;;;;6.22;0.98;;;;;;;20.89;43.51;100120.50;5010063;28;20169;-49
2022/09/23 14:19:20;;;;;;;3.65;0.93;;;;;;;20.91;44.04;100108.13;5044245;28;20050;-41